UUEE/SVO METAR and TAF weather

Enter ICAO airport designator
Station Type Date Time Source
UUEE METAR 2019/06/18 13:30 UTC NOAA

UUEE 181330Z 28006MPS CAVOK 26/13 Q1012 R24L/CLRD62 R24C/CLRD62 NOSIG


Station Type Date Time Source
UUEE Decoded METAR 2019/06/18 13:30 UTC NOAA

Moscow / Sheremet'Ye , Russia (UUEE) 55-59N 037-30E
Jun 18, 2019 - 09:30 AM EDT / 2019.06.18 1330 UTC
Wind: from the W (280 degrees) at 13 MPH (12 KT):0
Visibility: greater than 7 mile(s):0
Temperature: 78 F (26 C)
Dew Point: 55 F (13 C)
Relative Humidity: 44%
Pressure (altimeter): 29.88 in. Hg (1012 hPa)
ob: UUEE 181330Z 28006MPS CAVOK 26/13 Q1012 R24L/CLRD62 R24C/CLRD62 NOSIG
cycle: 13

Station Type Date Time Source
UUEE TAF 2019/06/18 12:21 UTC NOAA

TAF UUEE 181056Z 1812/1912 33005MPS 9999 SCT040 TX27/1812Z TN15/1902Z
TEMPO 1812/1818 32008G13MPS -SHRA SCT020CB

Example: see airport list